createdAt,value
2017-09-12T00:02:10.282Z,9.37
2017-09-12T00:04:42.078Z,9.33
2017-09-12T00:07:10.631Z,8.37
2017-09-12T00:09:40.474Z,9.20
2017-09-12T00:12:17.906Z,10.93
2017-09-12T00:14:47.678Z,9.60
2017-09-12T00:17:15.305Z,9.10
2017-09-12T00:19:42.852Z,9.50
2017-09-12T00:22:10.410Z,9.83
2017-09-12T00:24:38.011Z,8.60
2017-09-12T00:27:05.539Z,10.10
2017-09-12T00:29:33.092Z,8.70
2017-09-12T00:32:00.671Z,8.93
2017-09-12T00:34:28.435Z,7.90
2017-09-12T00:36:56.023Z,7.40
2017-09-12T00:39:23.683Z,7.50
2017-09-12T00:41:51.303Z,8.23
2017-09-12T00:44:18.903Z,7.97
2017-09-12T00:46:46.524Z,8.10
2017-09-12T00:49:14.266Z,8.53
2017-09-12T00:51:42.125Z,8.83
2017-09-12T00:54:09.795Z,8.17
2017-09-12T00:56:37.415Z,7.23
2017-09-12T00:59:06.022Z,7.93
2017-09-12T01:01:33.672Z,9.67
2017-09-12T01:04:01.264Z,8.10
2017-09-12T01:06:28.812Z,8.20
2017-09-12T01:08:56.430Z,8.30
2017-09-12T01:11:23.978Z,8.93
2017-09-12T01:13:52.302Z,8.53
2017-09-12T01:16:19.909Z,8.57
2017-09-12T01:18:47.462Z,9.37
2017-09-12T01:21:15.013Z,9.40
2017-09-12T01:23:42.614Z,8.70
2017-09-12T01:26:10.435Z,8.33
2017-09-12T01:28:38.070Z,7.93
2017-09-12T01:31:05.694Z,7.57
2017-09-12T01:33:33.257Z,8.30
2017-09-12T01:36:01.042Z,7.20
2017-09-12T01:38:28.622Z,9.07
2017-09-12T01:40:56.169Z,8.80
2017-09-12T01:43:23.685Z,7.60
2017-09-12T01:45:51.295Z,9.57
2017-09-12T01:48:19.026Z,8.20
2017-09-12T01:50:46.544Z,8.00
2017-09-12T01:53:14.198Z,8.20
2017-09-12T01:55:41.746Z,8.30
2017-09-12T01:58:09.642Z,8.50
2017-09-12T02:00:38.159Z,8.53
2017-09-12T02:03:05.702Z,8.27
2017-09-12T02:05:33.276Z,8.07
2017-09-12T02:08:00.871Z,8.70
2017-09-12T02:10:28.401Z,8.73
2017-09-12T02:12:56.239Z,7.83
2017-09-12T02:15:23.786Z,8.40
2017-09-12T02:17:51.295Z,8.10
2017-09-12T02:20:18.842Z,8.20
2017-09-12T02:22:46.802Z,7.70
2017-09-12T02:25:14.335Z,8.17
2017-09-12T02:27:42.620Z,6.90
2017-09-12T02:30:10.298Z,8.17
2017-09-12T02:32:38.095Z,7.97
2017-09-12T02:35:05.651Z,7.93
2017-09-12T02:37:33.214Z,8.30
2017-09-12T02:40:00.756Z,8.77
2017-09-12T02:42:28.596Z,8.20
2017-09-12T02:44:56.170Z,7.90
2017-09-12T02:47:23.702Z,7.50
2017-09-12T02:49:51.636Z,8.73
2017-09-12T02:52:19.346Z,8.40
2017-09-12T02:54:47.195Z,8.03
2017-09-12T02:57:14.712Z,8.30
2017-09-12T02:59:42.314Z,8.13
2017-09-12T03:02:09.898Z,7.57
2017-09-12T03:04:37.406Z,7.10
2017-09-12T03:07:04.922Z,8.33
2017-09-12T03:09:32.538Z,8.30
2017-09-12T03:12:00.072Z,7.87
2017-09-12T03:14:27.645Z,8.40
2017-09-12T03:16:55.210Z,8.50
2017-09-12T03:19:23.030Z,7.90
2017-09-12T03:21:50.553Z,7.77
2017-09-12T03:24:18.138Z,8.30
2017-09-12T03:26:45.655Z,8.13
2017-09-12T03:29:13.186Z,7.90
2017-09-12T03:31:40.778Z,7.77
2017-09-12T03:34:08.333Z,7.70
2017-09-12T03:36:36.008Z,8.13
2017-09-12T03:39:03.735Z,7.53
2017-09-12T03:41:31.783Z,6.93
2017-09-12T03:43:59.409Z,7.73
2017-09-12T03:46:26.980Z,8.00
2017-09-12T03:48:54.837Z,8.73
2017-09-12T03:51:22.461Z,7.80
2017-09-12T03:53:50.097Z,7.97
2017-09-12T03:56:17.769Z,7.87
2017-09-12T03:58:45.446Z,9.47
2017-09-12T04:01:13.497Z,8.93
2017-09-12T04:03:41.179Z,8.77
2017-09-12T04:06:11.869Z,7.80
2017-09-12T04:08:42.205Z,8.33
2017-09-12T04:11:10.112Z,7.70
2017-09-12T04:13:38.136Z,7.60
2017-09-12T04:16:05.975Z,8.23
2017-09-12T04:18:33.653Z,8.70
2017-09-12T04:21:04.580Z,9.50
2017-09-12T04:23:34.055Z,9.10
2017-09-12T04:26:01.859Z,10.20
2017-09-12T04:28:29.910Z,10.00
2017-09-12T04:30:57.690Z,10.27
2017-09-12T04:33:25.331Z,12.10
2017-09-12T04:35:52.934Z,10.20
2017-09-12T04:38:20.540Z,9.07
2017-09-12T04:40:48.167Z,10.50
2017-09-12T04:43:15.781Z,8.90
2017-09-12T04:45:43.438Z,9.67
2017-09-12T04:48:11.050Z,8.97
2017-09-12T04:50:38.686Z,8.23
2017-09-12T04:53:06.277Z,8.70
2017-09-12T04:55:33.802Z,8.37
2017-09-12T04:58:01.303Z,9.57
2017-09-12T05:00:28.866Z,8.50
2017-09-12T05:02:56.768Z,9.07
2017-09-12T05:05:24.314Z,9.20
2017-09-12T05:07:51.854Z,9.20
2017-09-12T05:10:19.464Z,9.23
2017-09-12T05:12:47.340Z,7.70
2017-09-12T05:15:15.039Z,8.40
2017-09-12T05:17:42.576Z,8.60
2017-09-12T05:20:10.148Z,9.07
2017-09-12T05:22:37.738Z,8.67
2017-09-12T05:25:05.250Z,8.23
2017-09-12T05:27:32.805Z,8.97
2017-09-12T05:30:00.411Z,9.17
2017-09-12T05:32:27.963Z,7.67
2017-09-12T05:34:55.546Z,7.27
2017-09-12T05:37:23.153Z,6.17
2017-09-12T05:39:50.705Z,6.03
2017-09-12T05:42:18.257Z,6.70
2017-09-12T05:44:46.076Z,6.33
2017-09-12T05:47:13.781Z,5.80
2017-09-12T05:49:41.310Z,7.03
2017-09-12T05:52:09.070Z,6.03
2017-09-12T05:54:36.692Z,6.30
2017-09-12T05:57:04.217Z,5.70
2017-09-12T05:59:31.977Z,6.00
2017-09-12T06:01:59.511Z,7.47
2017-09-12T06:04:27.045Z,5.43
2017-09-12T06:06:54.575Z,7.47
2017-09-12T06:09:22.222Z,5.43
2017-09-12T06:11:49.761Z,6.17
2017-09-12T06:14:17.322Z,5.70
2017-09-12T06:16:44.996Z,3.90
2017-09-12T06:19:12.530Z,3.80
2017-09-12T06:21:40.042Z,4.17
2017-09-12T06:24:07.808Z,3.57
2017-09-12T06:26:35.597Z,4.30
2017-09-12T06:29:03.189Z,3.73
2017-09-12T06:31:31.338Z,4.00
2017-09-12T06:33:58.840Z,4.90
2017-09-12T06:36:26.338Z,4.03
2017-09-12T06:38:53.912Z,4.67
2017-09-12T06:41:21.467Z,5.40
2017-09-12T06:43:49.216Z,4.00
2017-09-12T06:46:16.778Z,4.30
2017-09-12T06:48:44.300Z,4.00
2017-09-12T06:51:12.202Z,3.80
2017-09-12T06:53:39.771Z,4.73
2017-09-12T06:56:07.364Z,6.27
2017-09-12T06:58:34.888Z,5.10
2017-09-12T07:01:02.498Z,4.43
2017-09-12T07:03:30.024Z,5.80
2017-09-12T07:05:57.543Z,4.10
2017-09-12T07:08:25.143Z,3.90
2017-09-12T07:10:52.678Z,3.77
2017-09-12T07:13:20.256Z,4.20
2017-09-12T07:15:47.797Z,3.90
2017-09-12T07:18:15.545Z,4.40
2017-09-12T07:20:43.053Z,4.77
2017-09-12T07:23:10.602Z,4.20
2017-09-12T07:25:38.122Z,3.40
2017-09-12T07:28:05.628Z,3.77
2017-09-12T07:30:33.265Z,3.33
2017-09-12T07:33:00.791Z,3.67
2017-09-12T07:35:28.550Z,3.13
2017-09-12T07:37:56.108Z,3.40
2017-09-12T07:40:23.682Z,4.03
2017-09-12T07:42:51.216Z,4.50
2017-09-12T07:45:18.760Z,3.70
2017-09-12T07:47:46.301Z,2.63
2017-09-12T07:50:13.803Z,2.87
2017-09-12T07:52:41.390Z,3.63
2017-09-12T07:55:08.898Z,3.43
2017-09-12T07:57:36.448Z,2.97
2017-09-12T08:00:06.129Z,2.37
2017-09-12T08:02:33.653Z,2.43
2017-09-12T08:05:01.426Z,2.60
2017-09-12T08:07:28.978Z,2.47
2017-09-12T08:09:56.483Z,2.03
2017-09-12T08:12:24.006Z,2.77
2017-09-12T08:14:51.598Z,2.60
2017-09-12T08:17:19.397Z,2.60
2017-09-12T08:19:46.918Z,2.50
2017-09-12T08:22:14.562Z,2.40
2017-09-12T08:28:12.708Z,2.63
2017-09-12T08:30:40.279Z,2.37
2017-09-12T08:33:07.805Z,2.50
2017-09-12T08:35:35.370Z,2.47
2017-09-12T08:38:02.957Z,2.03
2017-09-12T08:40:30.522Z,2.47
2017-09-12T08:42:58.048Z,2.93
2017-09-12T08:45:25.606Z,2.30
2017-09-12T08:47:53.149Z,2.23
2017-09-12T08:50:20.663Z,2.50
2017-09-12T08:52:48.286Z,2.17
2017-09-12T08:55:15.845Z,2.30
2017-09-12T08:57:43.409Z,3.10
2017-09-12T09:00:11.054Z,2.87
2017-09-12T09:02:38.614Z,2.40
2017-09-12T09:05:06.142Z,2.10
2017-09-12T09:07:33.694Z,2.10
2017-09-12T09:10:01.225Z,2.00
2017-09-12T09:12:28.764Z,2.00
2017-09-12T09:14:56.333Z,2.30
2017-09-12T09:17:23.922Z,2.10
2017-09-12T09:19:51.425Z,2.47
2017-09-12T09:22:19.203Z,1.87
2017-09-12T09:24:46.782Z,2.13
2017-09-12T09:27:14.340Z,2.20
2017-09-12T09:29:41.901Z,1.87
2017-09-12T09:32:09.455Z,2.10
2017-09-12T09:34:36.968Z,2.87
2017-09-12T09:37:04.533Z,2.00
2017-09-12T09:39:32.090Z,1.70
2017-09-12T09:41:59.751Z,1.90
2017-09-12T09:44:27.285Z,1.90
2017-09-12T09:46:54.911Z,2.00
2017-09-12T09:49:22.435Z,1.70
2017-09-12T09:51:49.942Z,1.80
2017-09-12T09:54:17.494Z,2.00
2017-09-12T09:56:45.005Z,2.17
2017-09-12T09:59:12.537Z,1.80
2017-09-12T10:01:40.165Z,2.00
2017-09-12T10:04:07.701Z,1.50
2017-09-12T10:06:35.380Z,1.33
2017-09-12T10:09:03.114Z,1.40
2017-09-12T10:11:30.635Z,2.30
2017-09-12T10:13:58.162Z,1.63
2017-09-12T10:16:25.709Z,1.90
2017-09-12T10:18:53.230Z,2.00
2017-09-12T10:21:20.741Z,1.90
2017-09-12T10:23:48.294Z,1.70
2017-09-12T10:26:16.156Z,1.97
2017-09-12T10:28:43.702Z,1.93
2017-09-12T10:31:11.350Z,1.70
2017-09-12T10:33:38.933Z,1.90
2017-09-12T10:36:06.460Z,1.70
2017-09-12T10:38:34.027Z,2.10
2017-09-12T10:41:01.552Z,1.57
2017-09-12T10:43:29.098Z,2.20
2017-09-12T10:45:56.670Z,1.70
2017-09-12T10:48:24.173Z,1.67
2017-09-12T10:50:51.710Z,1.50
2017-09-12T10:53:19.317Z,1.90
2017-09-12T10:55:46.982Z,1.30
2017-09-12T10:58:14.508Z,1.40
2017-09-12T11:00:42.322Z,1.50
2017-09-12T11:03:09.873Z,1.70
2017-09-12T11:05:37.378Z,1.63
2017-09-12T11:08:04.940Z,1.50
2017-09-12T11:10:32.443Z,1.50
2017-09-12T11:13:00.020Z,1.40
2017-09-12T11:15:27.649Z,1.60
2017-09-12T11:17:55.195Z,1.77
2017-09-12T11:20:22.909Z,1.40
2017-09-12T11:22:50.543Z,1.70
2017-09-12T11:25:18.050Z,1.60
2017-09-12T11:27:45.565Z,1.43
2017-09-12T11:30:13.128Z,1.50
2017-09-12T11:32:40.952Z,1.47
2017-09-12T11:35:08.512Z,2.13
2017-09-12T11:37:36.081Z,1.30
2017-09-12T11:40:03.603Z,1.33
2017-09-12T11:42:31.643Z,1.50
2017-09-12T11:44:59.198Z,1.80
2017-09-12T11:47:27.149Z,1.90
2017-09-12T11:49:54.746Z,1.40
2017-09-12T11:52:22.298Z,1.77
2017-09-12T11:54:50.270Z,1.33
2017-09-12T11:57:18.129Z,1.50
2017-09-12T11:59:45.678Z,1.30
2017-09-12T12:02:13.243Z,1.60
2017-09-12T12:04:40.806Z,1.77
2017-09-12T12:07:08.411Z,1.20
2017-09-12T12:09:35.961Z,1.20
2017-09-12T12:12:03.513Z,1.00
2017-09-12T12:14:31.066Z,1.60
2017-09-12T12:16:58.652Z,1.30
2017-09-12T12:19:26.209Z,1.40
2017-09-12T12:21:53.745Z,1.40
2017-09-12T12:24:21.338Z,1.47
2017-09-12T12:26:49.091Z,1.40
2017-09-12T12:29:16.838Z,2.30
2017-09-12T12:31:44.406Z,1.70
2017-09-12T12:34:11.960Z,1.47
2017-09-12T12:36:39.534Z,1.30
2017-09-12T12:39:07.319Z,1.43
2017-09-12T12:41:34.838Z,1.30
2017-09-12T12:44:02.360Z,1.63
2017-09-12T12:46:29.943Z,2.17
2017-09-12T12:48:57.570Z,2.33
2017-09-12T12:51:25.110Z,1.30
2017-09-12T12:53:52.758Z,1.40
2017-09-12T12:56:20.411Z,1.37
2017-09-12T12:58:47.977Z,1.43
2017-09-12T13:01:15.659Z,1.60
2017-09-12T13:03:43.242Z,1.70
2017-09-12T13:06:10.832Z,1.20
2017-09-12T13:08:38.418Z,1.23
2017-09-12T13:11:06.990Z,1.20
2017-09-12T13:13:34.529Z,1.00
2017-09-12T13:16:02.245Z,1.40
2017-09-12T13:18:29.922Z,1.40
2017-09-12T13:20:57.486Z,1.40
2017-09-12T13:23:25.126Z,1.10
2017-09-12T13:25:53.061Z,1.30
2017-09-12T13:28:20.749Z,1.20
2017-09-12T13:30:48.442Z,1.00
2017-09-12T13:33:15.986Z,1.40
2017-09-12T13:35:43.606Z,1.10
2017-09-12T13:38:11.221Z,1.50
2017-09-12T13:40:38.859Z,1.30
2017-09-12T13:43:06.485Z,1.30
2017-09-12T13:45:34.093Z,1.30
2017-09-12T13:48:02.270Z,2.10
2017-09-12T13:50:29.884Z,1.70
2017-09-12T13:52:57.542Z,1.50
2017-09-12T13:55:25.154Z,1.47
2017-09-12T13:57:52.748Z,1.77
2017-09-12T14:00:20.345Z,1.60
2017-09-12T14:02:47.866Z,1.90
2017-09-12T14:05:15.432Z,2.90
2017-09-12T14:07:44.128Z,1.90
2017-09-12T14:10:11.638Z,1.50
2017-09-12T14:12:39.381Z,1.77
2017-09-12T14:15:06.936Z,1.60
2017-09-12T14:17:34.514Z,1.80
2017-09-12T14:20:02.157Z,3.10
2017-09-12T14:22:29.924Z,2.50
2017-09-12T14:24:57.534Z,2.33
2017-09-12T14:27:25.162Z,1.80
2017-09-12T14:29:52.934Z,1.37
2017-09-12T14:32:20.674Z,1.87
2017-09-12T14:34:48.431Z,2.10
2017-09-12T14:37:15.994Z,2.20
2017-09-12T14:39:43.570Z,1.30
2017-09-12T14:42:11.161Z,1.60
2017-09-12T14:44:38.846Z,1.87
2017-09-12T14:47:06.521Z,1.83
2017-09-12T14:49:34.310Z,1.60
2017-09-12T14:52:02.113Z,1.73
2017-09-12T14:54:30.227Z,1.70
2017-09-12T14:56:57.873Z,1.80
2017-09-12T14:59:25.440Z,1.60
2017-09-12T15:01:53.058Z,1.60
2017-09-12T15:04:20.591Z,1.57
2017-09-12T15:06:48.401Z,1.93
2017-09-12T15:09:16.008Z,2.50
2017-09-12T15:11:43.648Z,1.60
2017-09-12T15:14:11.222Z,1.63
2017-09-12T15:16:38.790Z,2.47
2017-09-12T15:19:06.322Z,1.80
2017-09-12T15:21:33.913Z,3.70
2017-09-12T15:24:01.499Z,2.00
2017-09-12T15:26:29.070Z,1.70
2017-09-12T15:28:56.806Z,1.73
2017-09-12T15:31:24.403Z,1.80
2017-09-12T15:33:52.022Z,1.80
2017-09-12T15:36:19.558Z,1.73
2017-09-12T15:38:47.137Z,2.20
2017-09-12T15:41:14.687Z,1.90
2017-09-12T15:43:42.217Z,1.90
2017-09-12T15:46:09.826Z,2.40
2017-09-12T15:48:37.383Z,1.70
2017-09-12T15:51:04.962Z,2.80
2017-09-12T15:53:32.566Z,8.57
2017-09-12T15:56:00.098Z,19.00
2017-09-12T15:58:28.497Z,4.87
2017-09-12T16:00:56.150Z,3.17
2017-09-12T16:03:23.686Z,2.60
2017-09-12T16:05:51.229Z,2.70
2017-09-12T16:08:18.819Z,3.57
2017-09-12T16:10:46.393Z,3.27
2017-09-12T16:13:14.086Z,2.90
2017-09-12T16:15:41.720Z,2.30
2017-09-12T16:18:09.261Z,2.80
2017-09-12T16:20:36.872Z,2.87
2017-09-12T16:23:04.855Z,2.60
2017-09-12T16:25:32.457Z,3.17
2017-09-12T16:28:00.195Z,4.30
2017-09-12T16:30:27.929Z,4.03
2017-09-12T16:32:55.498Z,3.43
2017-09-12T16:35:23.014Z,3.17
2017-09-12T16:37:50.610Z,3.83
2017-09-12T16:40:18.178Z,3.03
2017-09-12T16:42:45.745Z,3.50
2017-09-12T16:45:13.314Z,3.30
2017-09-12T16:47:40.901Z,2.80
2017-09-12T16:50:08.460Z,3.43
2017-09-12T16:52:36.033Z,2.93
2017-09-12T16:55:03.594Z,3.00
2017-09-12T16:57:31.183Z,3.23
2017-09-12T16:59:58.781Z,3.23
2017-09-12T17:02:26.512Z,2.53
2017-09-12T17:04:54.380Z,3.40
2017-09-12T17:07:22.279Z,3.00
2017-09-12T17:09:49.878Z,2.83
2017-09-12T17:12:17.418Z,2.73
2017-09-12T17:14:45.813Z,2.40
2017-09-12T17:17:13.364Z,2.30
2017-09-12T17:19:41.379Z,2.23
2017-09-12T17:22:08.978Z,2.80
2017-09-12T17:24:36.626Z,2.80
2017-09-12T17:27:04.171Z,2.90
2017-09-12T17:29:31.703Z,3.30
2017-09-12T17:31:59.343Z,3.93
2017-09-12T17:34:26.911Z,4.70
2017-09-12T17:36:54.551Z,2.70
2017-09-12T17:39:22.119Z,2.60
2017-09-12T17:41:49.836Z,2.50
2017-09-12T17:44:18.438Z,2.70
2017-09-12T17:46:46.127Z,2.33
2017-09-12T17:49:13.700Z,2.43
2017-09-12T17:51:41.308Z,2.97
2017-09-12T17:54:09.696Z,2.90
2017-09-12T17:56:37.263Z,2.97
2017-09-12T17:59:05.720Z,2.80
2017-09-12T18:01:34.238Z,2.80
2017-09-12T18:04:01.776Z,2.73
2017-09-12T18:06:29.474Z,2.10
2017-09-12T18:08:57.076Z,2.77
2017-09-12T18:11:24.717Z,2.47
2017-09-12T18:13:52.289Z,2.30
2017-09-12T18:16:20.422Z,2.83
2017-09-12T18:18:48.240Z,2.50
2017-09-12T18:21:16.723Z,3.47
2017-09-12T18:23:44.286Z,2.50
2017-09-12T18:26:11.843Z,2.60
2017-09-12T18:28:39.436Z,2.77
2017-09-12T18:31:07.013Z,2.70
2017-09-12T18:33:34.611Z,2.90
2017-09-12T18:36:02.165Z,3.20
2017-09-12T18:38:29.805Z,3.33
2017-09-12T18:40:58.387Z,4.20
2017-09-12T18:43:25.960Z,4.10
2017-09-12T18:45:53.641Z,3.30
2017-09-12T18:48:21.195Z,4.20
2017-09-12T18:50:48.745Z,3.30
2017-09-12T18:53:16.442Z,3.60
2017-09-12T18:55:43.982Z,2.90
2017-09-12T18:58:11.519Z,3.27
2017-09-12T19:00:39.141Z,3.87
2017-09-12T19:03:06.909Z,3.33
2017-09-12T19:05:34.739Z,3.67
2017-09-12T19:08:02.853Z,3.80
2017-09-12T19:10:30.482Z,2.90
2017-09-12T19:12:58.272Z,2.83
2017-09-12T19:15:25.874Z,2.77
2017-09-12T19:17:53.697Z,2.67
2017-09-12T19:20:21.273Z,2.50
2017-09-12T19:22:48.930Z,2.70
2017-09-12T19:25:16.593Z,3.17
2017-09-12T19:27:44.253Z,4.17
2017-09-12T19:30:12.014Z,3.80
2017-09-12T19:32:39.600Z,4.60
2017-09-12T19:35:07.687Z,6.50
2017-09-12T19:37:35.485Z,4.67
2017-09-12T19:40:03.274Z,5.00
2017-09-12T19:42:30.872Z,4.57
2017-09-12T19:44:58.479Z,4.57
2017-09-12T19:47:26.915Z,4.13
2017-09-12T19:49:55.279Z,3.60
2017-09-12T19:52:22.891Z,4.23
2017-09-12T19:54:50.683Z,5.60
2017-09-12T19:57:18.498Z,5.63
2017-09-12T19:59:46.134Z,5.57
2017-09-12T20:02:13.757Z,6.23
2017-09-12T20:04:41.323Z,5.73
2017-09-12T20:07:08.879Z,5.90
2017-09-12T20:09:37.297Z,5.40
2017-09-12T20:12:04.923Z,4.90
2017-09-12T20:14:32.526Z,5.10
2017-09-12T20:17:00.126Z,8.60
2017-09-12T20:19:28.043Z,5.13
2017-09-12T20:21:55.616Z,5.00
2017-09-12T20:24:23.263Z,4.10
2017-09-12T20:26:50.849Z,4.37
2017-09-12T20:29:18.439Z,5.70
2017-09-12T20:31:46.075Z,5.87
2017-09-12T20:34:13.617Z,4.60
2017-09-12T20:36:41.426Z,5.57
2017-09-12T20:39:09.061Z,3.80
2017-09-12T20:41:37.333Z,3.20
2017-09-12T20:44:04.917Z,2.90
2017-09-12T20:46:36.125Z,3.20
2017-09-12T20:49:06.489Z,3.33
2017-09-12T20:54:11.521Z,4.80
2017-09-12T20:56:39.100Z,2.80
2017-09-12T20:59:06.687Z,2.70
2017-09-12T21:01:34.302Z,2.50
2017-09-12T21:04:01.902Z,2.00
2017-09-12T21:06:29.699Z,2.13
2017-09-12T21:08:57.334Z,2.63
2017-09-12T21:11:24.915Z,3.00
2017-09-12T21:13:52.538Z,3.33
2017-09-12T21:16:20.166Z,2.50
2017-09-12T21:18:47.725Z,2.90
2017-09-12T21:21:15.249Z,3.23
2017-09-12T21:23:42.829Z,3.40
2017-09-12T21:26:10.367Z,2.50
2017-09-12T21:28:37.912Z,2.40
2017-09-12T21:31:05.502Z,2.37
2017-09-12T21:33:33.096Z,2.30
2017-09-12T21:36:00.619Z,2.10
2017-09-12T21:38:28.202Z,2.27
2017-09-12T21:40:55.794Z,2.10
2017-09-12T21:43:23.364Z,2.03
2017-09-12T21:45:51.026Z,2.00
2017-09-12T21:48:18.598Z,2.17
2017-09-12T21:50:46.417Z,2.03
2017-09-12T21:53:14.100Z,1.93
2017-09-12T21:55:41.671Z,2.50
2017-09-12T21:58:09.248Z,2.40
2017-09-12T22:00:37.015Z,1.80
2017-09-12T22:03:04.780Z,2.40
2017-09-12T22:05:32.358Z,2.70
2017-09-12T22:07:59.970Z,2.20
2017-09-12T22:10:27.551Z,2.30
2017-09-12T22:12:55.176Z,2.40
2017-09-12T22:15:22.794Z,2.03
2017-09-12T22:17:50.451Z,1.80
2017-09-12T22:20:18.307Z,2.03
2017-09-12T22:22:45.874Z,2.10
2017-09-12T22:25:13.418Z,2.23
2017-09-12T22:27:41.018Z,2.57
2017-09-12T22:30:08.680Z,1.87
2017-09-12T22:32:36.198Z,2.00
2017-09-12T22:35:03.739Z,1.77
2017-09-12T22:37:32.108Z,1.97
2017-09-12T22:39:59.644Z,1.70
2017-09-12T22:42:27.193Z,1.90
2017-09-12T22:44:54.810Z,2.30
2017-09-12T22:47:22.415Z,1.93
2017-09-12T22:49:50.010Z,3.23
2017-09-12T22:52:17.627Z,2.97
2017-09-12T22:54:45.196Z,2.00
2017-09-12T22:57:12.961Z,1.80
2017-09-12T22:59:40.543Z,2.10
2017-09-12T23:02:08.177Z,1.93
2017-09-12T23:04:35.934Z,2.07
2017-09-12T23:07:03.878Z,1.77
2017-09-12T23:09:31.459Z,1.93
2017-09-12T23:11:58.977Z,1.90
2017-09-12T23:14:26.731Z,1.83
2017-09-12T23:16:54.332Z,1.97
2017-09-12T23:19:21.892Z,2.30
2017-09-12T23:21:50.129Z,1.73
2017-09-12T23:24:17.734Z,1.97
2017-09-12T23:26:45.319Z,2.33
2017-09-12T23:29:12.870Z,1.80
2017-09-12T23:31:40.489Z,1.77
2017-09-12T23:34:08.081Z,2.00
2017-09-12T23:36:35.671Z,1.97
2017-09-12T23:39:03.226Z,1.70
2017-09-12T23:41:30.782Z,1.97
2017-09-12T23:43:58.377Z,1.90
2017-09-12T23:46:25.977Z,2.60
2017-09-12T23:48:53.734Z,1.80
2017-09-12T23:51:21.605Z,2.23
2017-09-12T23:53:49.203Z,1.80
2017-09-12T23:56:16.753Z,2.00
2017-09-12T23:58:44.330Z,1.97
